createdAt,value
2023-02-03T00:02:46.177Z,3.70
2023-02-03T00:05:48.540Z,3.00
2023-02-03T00:08:54.840Z,2.90
2023-02-03T00:11:56.285Z,3.47
2023-02-03T00:14:57.711Z,3.30
2023-02-03T00:17:59.096Z,2.77
2023-02-03T00:21:00.506Z,3.25
2023-02-03T00:24:02.034Z,3.20
2023-02-03T00:27:03.549Z,3.20
2023-02-03T00:30:05.564Z,2.70
2023-02-03T00:33:07.037Z,2.83
2023-02-03T00:36:09.232Z,3.25
2023-02-03T00:39:10.722Z,2.55
2023-02-03T00:42:12.221Z,3.00
2023-02-03T00:45:13.708Z,2.77
2023-02-03T00:48:15.190Z,2.60
2023-02-03T00:51:18.870Z,2.60
2023-02-03T00:54:20.412Z,2.72
2023-02-03T00:57:21.830Z,3.00
2023-02-03T01:00:24.155Z,2.83
2023-02-03T01:03:25.989Z,2.45
2023-02-03T01:06:28.250Z,3.22
2023-02-03T01:09:34.274Z,3.00
2023-02-03T01:12:35.702Z,3.15
2023-02-03T01:15:37.219Z,2.70
2023-02-03T01:18:39.396Z,2.60
2023-02-03T01:21:40.815Z,2.30
2023-02-03T01:24:42.500Z,2.47
2023-02-03T01:27:44.246Z,2.70
2023-02-03T01:30:45.796Z,2.27
2023-02-03T01:33:48.668Z,2.65
2023-02-03T01:36:50.120Z,2.60
2023-02-03T01:39:51.514Z,2.17
2023-02-03T01:42:52.928Z,2.42
2023-02-03T01:45:54.382Z,2.00
2023-02-03T01:49:15.247Z,2.37
2023-02-03T01:52:17.482Z,2.22
2023-02-03T01:55:27.861Z,1.90
2023-02-03T01:58:33.921Z,1.77
2023-02-03T02:01:37.167Z,2.15
2023-02-03T02:04:55.596Z,2.00
2023-02-03T02:08:00.052Z,2.45
2023-02-03T02:11:02.197Z,1.90
2023-02-03T02:14:03.840Z,2.05
2023-02-03T02:17:18.661Z,1.80
2023-02-03T02:20:49.321Z,1.90
2023-02-03T02:24:17.338Z,1.90
2023-02-03T02:28:07.990Z,2.05
2023-02-03T02:31:15.318Z,1.90
2023-02-03T02:34:28.894Z,1.83
2023-02-03T02:37:36.449Z,1.80
2023-02-03T02:40:46.394Z,1.52
2023-02-03T02:44:03.989Z,1.70
2023-02-03T02:47:14.518Z,1.40
2023-02-03T02:50:26.385Z,1.27
2023-02-03T02:53:33.988Z,1.40
2023-02-03T02:56:39.844Z,1.38
2023-02-03T02:59:41.320Z,1.70
2023-02-03T03:02:42.970Z,1.20
2023-02-03T03:05:50.852Z,1.25
2023-02-03T03:09:00.877Z,1.00
2023-02-03T03:12:20.437Z,1.02
2023-02-03T03:15:26.921Z,0.80
2023-02-03T03:18:33.510Z,0.70
2023-02-03T03:21:41.152Z,0.80
2023-02-03T03:24:52.499Z,1.00
2023-02-03T03:28:01.904Z,0.75
2023-02-03T03:31:04.151Z,0.75
2023-02-03T03:34:05.789Z,0.90
2023-02-03T03:37:17.611Z,0.83
2023-02-03T03:40:25.716Z,0.90
2023-02-03T03:43:32.702Z,1.00
2023-02-03T03:46:43.490Z,0.88
2023-02-03T03:49:47.009Z,1.20
2023-02-03T03:52:50.623Z,1.10
2023-02-03T03:55:54.080Z,1.10
2023-02-03T03:58:58.459Z,1.20
2023-02-03T04:02:04.497Z,1.60
2023-02-03T04:05:07.029Z,1.33
2023-02-03T04:08:08.594Z,1.30
2023-02-03T04:11:10.081Z,1.40
2023-02-03T04:14:11.590Z,1.25
2023-02-03T04:17:13.076Z,1.43
2023-02-03T04:20:15.993Z,1.67
2023-02-03T04:23:17.464Z,1.70
2023-02-03T04:26:19.113Z,1.90
2023-02-03T04:29:20.509Z,2.17
2023-02-03T04:32:21.947Z,1.80
2023-02-03T04:35:23.469Z,1.80
2023-02-03T04:38:25.070Z,2.30
2023-02-03T04:41:26.550Z,1.85
2023-02-03T04:44:27.948Z,2.38
2023-02-03T04:47:29.516Z,2.58
2023-02-03T04:50:31.714Z,2.40
2023-02-03T04:53:33.567Z,2.10
2023-02-03T04:56:35.087Z,2.20
2023-02-03T04:59:36.500Z,2.30
2023-02-03T05:02:37.914Z,2.17
2023-02-03T05:05:39.473Z,2.03
2023-02-03T05:08:40.903Z,2.08
2023-02-03T05:11:42.354Z,2.50
2023-02-03T05:14:43.910Z,2.40
2023-02-03T05:17:45.327Z,2.10
2023-02-03T05:20:46.726Z,2.63
2023-02-03T05:23:48.232Z,2.88
2023-02-03T05:26:49.749Z,2.50
2023-02-03T05:29:51.197Z,2.70
2023-02-03T05:32:52.616Z,3.08
2023-02-03T05:35:54.266Z,2.67
2023-02-03T05:38:55.698Z,2.55
2023-02-03T05:41:58.483Z,4.25
2023-02-03T05:45:00.042Z,2.65
2023-02-03T05:48:04.481Z,2.30
2023-02-03T05:51:06.011Z,2.70
2023-02-03T05:54:08.635Z,2.40
2023-02-03T05:57:10.051Z,2.92
2023-02-03T06:00:12.154Z,2.35
2023-02-03T06:03:13.554Z,2.70
2023-02-03T06:06:16.022Z,2.97
2023-02-03T06:12:18.849Z,2.97
2023-02-03T06:15:20.428Z,2.77
2023-02-03T06:18:22.008Z,2.80
2023-02-03T06:21:23.525Z,3.37
2023-02-03T06:24:24.956Z,2.80
2023-02-03T06:27:26.557Z,3.55
2023-02-03T06:30:28.305Z,3.00
2023-02-03T06:33:30.204Z,2.78
2023-02-03T06:36:31.674Z,3.15
2023-02-03T06:39:33.183Z,3.00
2023-02-03T06:42:34.830Z,2.80
2023-02-03T06:45:36.307Z,3.00
2023-02-03T06:48:37.703Z,3.22
2023-02-03T06:51:39.341Z,2.75
2023-02-03T06:54:41.148Z,3.10
2023-02-03T06:57:44.506Z,4.03
2023-02-03T07:00:45.901Z,3.45
2023-02-03T07:03:47.513Z,3.10
2023-02-03T07:06:49.096Z,3.57
2023-02-03T07:09:50.485Z,5.00
2023-02-03T07:12:51.962Z,3.00
2023-02-03T07:15:53.422Z,3.17
2023-02-03T07:18:54.930Z,2.90
2023-02-03T07:21:56.457Z,3.37
2023-02-03T07:24:57.855Z,3.37
2023-02-03T07:27:59.309Z,3.10
2023-02-03T07:31:01.171Z,3.67
2023-02-03T07:34:02.814Z,3.15
2023-02-03T07:37:04.321Z,3.30
2023-02-03T07:40:05.914Z,3.60
2023-02-03T07:43:07.367Z,3.38
2023-02-03T07:46:08.951Z,3.13
2023-02-03T07:49:11.557Z,3.33
2023-02-03T07:52:12.978Z,2.97
2023-02-03T07:55:14.426Z,3.28
2023-02-03T07:58:17.013Z,3.33
2023-02-03T08:01:18.690Z,3.70
2023-02-03T08:04:20.846Z,3.55
2023-02-03T08:07:22.259Z,4.03
2023-02-03T08:10:23.919Z,3.60
2023-02-03T08:13:25.568Z,6.30
2023-02-03T08:16:27.014Z,4.13
2023-02-03T08:19:28.508Z,3.50
2023-02-03T08:22:29.996Z,3.80
2023-02-03T08:25:31.562Z,3.80
2023-02-03T08:28:33.002Z,4.07
2023-02-03T08:31:34.798Z,4.97
2023-02-03T08:34:36.485Z,4.50
2023-02-03T08:37:38.097Z,4.20
2023-02-03T08:40:39.494Z,3.50
2023-02-03T08:43:41.457Z,4.15
2023-02-03T08:46:44.100Z,4.68
2023-02-03T08:49:45.805Z,5.40
2023-02-03T08:52:47.282Z,5.00
2023-02-03T08:55:48.823Z,4.47
2023-02-03T08:58:50.292Z,4.70
2023-02-03T09:01:52.639Z,4.15
2023-02-03T09:07:55.480Z,8.13
2023-02-03T09:10:57.026Z,4.50
2023-02-03T09:13:58.415Z,4.27
2023-02-03T09:17:03.156Z,4.90
2023-02-03T09:20:05.182Z,4.40
2023-02-03T09:23:06.697Z,4.10
2023-02-03T09:26:11.089Z,4.10
2023-02-03T09:29:12.714Z,3.83
2023-02-03T09:32:15.483Z,3.17
2023-02-03T09:35:17.383Z,3.92
2023-02-03T09:38:19.050Z,4.35
2023-02-03T09:41:44.134Z,4.30
2023-02-03T09:44:54.631Z,3.92
2023-02-03T09:48:04.535Z,3.63
2023-02-03T09:51:11.000Z,3.83
2023-02-03T09:54:21.338Z,3.97
2023-02-03T09:57:29.929Z,3.90
2023-02-03T10:00:58.060Z,4.70
2023-02-03T10:04:07.059Z,5.93
2023-02-03T10:07:25.154Z,5.60
2023-02-03T10:10:39.195Z,4.75
2023-02-03T10:14:06.938Z,5.22
2023-02-03T10:17:23.209Z,3.85
2023-02-03T10:20:38.633Z,4.85
2023-02-03T10:23:42.430Z,5.90
2023-02-03T10:26:43.891Z,5.55
2023-02-03T10:29:54.291Z,3.90
2023-02-03T10:33:17.664Z,4.47
2023-02-03T10:36:40.327Z,3.55
2023-02-03T10:43:05.629Z,3.17
2023-02-03T10:46:07.207Z,3.05
2023-02-03T10:49:10.761Z,3.65
2023-02-03T10:52:34.532Z,3.10
2023-02-03T10:55:35.994Z,2.88
2023-02-03T10:58:39.289Z,2.87
2023-02-03T11:01:47.118Z,2.72
2023-02-03T11:04:48.570Z,3.38
2023-02-03T11:07:50.561Z,2.80
2023-02-03T11:11:02.775Z,2.30
2023-02-03T11:14:04.128Z,2.60
2023-02-03T11:17:09.087Z,2.88
2023-02-03T11:20:17.395Z,2.58
2023-02-03T11:23:23.464Z,2.40
2023-02-03T11:26:28.895Z,2.45
2023-02-03T11:29:34.194Z,2.40
2023-02-03T11:32:38.223Z,2.60
2023-02-03T11:35:40.486Z,2.10
2023-02-03T11:38:43.572Z,2.25
2023-02-03T11:41:47.123Z,2.17
2023-02-03T11:44:48.497Z,2.50
2023-02-03T11:47:53.883Z,2.83
2023-02-03T11:51:20.688Z,2.28
2023-02-03T11:54:47.620Z,2.20
2023-02-03T11:58:00.199Z,1.98
2023-02-03T12:01:20.615Z,2.58
2023-02-03T12:04:38.892Z,2.50
2023-02-03T12:07:58.410Z,2.40
2023-02-03T12:11:09.757Z,1.98
2023-02-03T12:14:54.647Z,2.50
2023-02-03T12:18:11.185Z,3.40
2023-02-03T12:21:31.915Z,2.10
2023-02-03T12:24:39.302Z,2.40
2023-02-03T12:28:08.877Z,2.20
2023-02-03T12:31:13.483Z,2.15
2023-02-03T12:34:33.070Z,2.75
2023-02-03T12:37:42.289Z,2.10
2023-02-03T12:40:55.213Z,2.13
2023-02-03T12:44:05.338Z,3.10
2023-02-03T12:47:31.929Z,2.50
2023-02-03T12:50:45.975Z,2.33
2023-02-03T12:53:55.146Z,2.00
2023-02-03T12:57:03.868Z,2.10
2023-02-03T13:00:39.396Z,2.00
2023-02-03T13:03:48.541Z,2.20
2023-02-03T13:07:33.404Z,1.92
2023-02-03T13:10:55.128Z,2.22
2023-02-03T13:14:03.825Z,1.83
2023-02-03T13:17:17.917Z,1.70
2023-02-03T13:20:22.391Z,1.90
2023-02-03T13:23:25.301Z,1.80
2023-02-03T13:26:48.598Z,2.05
2023-02-03T13:30:14.932Z,2.30
2023-02-03T13:33:39.563Z,1.63
2023-02-03T13:36:59.235Z,1.90
2023-02-03T13:40:10.809Z,1.90
2023-02-03T13:46:40.356Z,1.90
2023-02-03T13:49:47.601Z,2.17
2023-02-03T13:53:00.129Z,2.03
2023-02-03T13:59:13.915Z,1.73
2023-02-03T14:02:21.414Z,1.67
2023-02-03T14:05:49.451Z,1.67
2023-02-03T14:08:52.407Z,1.90
2023-02-03T14:12:16.662Z,1.67
2023-02-03T14:15:18.293Z,1.20
2023-02-03T14:18:44.978Z,1.07
2023-02-03T14:22:02.741Z,1.30
2023-02-03T14:25:06.794Z,1.40
2023-02-03T14:28:20.038Z,1.15
2023-02-03T14:31:26.318Z,0.70
2023-02-03T14:34:35.100Z,0.95
2023-02-03T14:37:36.507Z,1.20
2023-02-03T14:40:55.433Z,1.20
2023-02-03T14:44:15.633Z,1.10
2023-02-03T14:47:32.558Z,0.90
2023-02-03T14:50:50.980Z,1.08
2023-02-03T14:54:07.539Z,1.27
2023-02-03T14:57:36.915Z,1.40
2023-02-03T15:00:38.440Z,0.70
2023-02-03T15:03:42.217Z,1.40
2023-02-03T15:06:48.311Z,1.30
2023-02-03T15:09:51.490Z,2.28
2023-02-03T15:12:55.293Z,2.47
2023-02-03T15:16:00.072Z,2.92
2023-02-03T15:19:08.056Z,3.80
2023-02-03T15:22:25.265Z,2.90
2023-02-03T15:25:29.522Z,2.28
2023-02-03T15:28:31.283Z,2.72
2023-02-03T15:31:45.844Z,3.50
2023-02-03T15:34:49.507Z,2.00
2023-02-03T15:37:56.064Z,2.05
2023-02-03T15:40:58.893Z,1.40
2023-02-03T15:44:33.149Z,1.30
2023-02-03T15:47:40.487Z,1.70
2023-02-03T15:50:48.939Z,2.15
2023-02-03T15:53:56.977Z,1.90
2023-02-03T15:57:01.822Z,2.67
2023-02-03T16:00:24.804Z,2.17
2023-02-03T16:03:35.282Z,1.52
2023-02-03T16:06:40.357Z,1.42
2023-02-03T16:09:41.860Z,1.70
2023-02-03T16:12:43.627Z,2.50
2023-02-03T16:15:56.184Z,2.83
2023-02-03T16:22:00.391Z,2.50
2023-02-03T16:25:23.597Z,2.60
2023-02-03T16:28:44.693Z,3.58
2023-02-03T16:32:05.202Z,3.45
2023-02-03T16:35:28.950Z,3.00
2023-02-03T16:38:49.303Z,3.60
2023-02-03T16:42:09.621Z,4.00
2023-02-03T16:45:34.285Z,3.17
2023-02-03T16:48:54.571Z,3.03
2023-02-03T16:51:56.167Z,2.58
2023-02-03T16:54:58.149Z,2.75
2023-02-03T16:57:59.736Z,3.03
2023-02-03T17:01:03.757Z,2.40
2023-02-03T17:04:05.381Z,2.15
2023-02-03T17:07:06.827Z,1.70
2023-02-03T17:10:09.498Z,1.80
2023-02-03T17:13:12.088Z,1.40
2023-02-03T17:16:22.871Z,1.67
2023-02-03T17:19:24.447Z,1.80
2023-02-03T17:22:27.065Z,2.20
2023-02-03T17:25:29.129Z,2.25
2023-02-03T17:28:31.051Z,2.40
2023-02-03T17:31:32.868Z,3.10
2023-02-03T17:34:34.899Z,2.80
2023-02-03T17:37:36.443Z,3.80
2023-02-03T17:54:04.905Z,3.55
2023-02-03T17:57:06.544Z,4.20
2023-02-03T18:00:09.462Z,3.90
2023-02-03T18:03:16.511Z,3.83
2023-02-03T18:06:20.683Z,3.77
2023-02-03T18:09:23.353Z,3.83
2023-02-03T18:12:24.857Z,3.60
2023-02-03T18:15:26.233Z,3.83
2023-02-03T18:18:28.937Z,4.43
2023-02-03T18:21:32.232Z,3.80
2023-02-03T18:24:33.734Z,4.38
2023-02-03T18:27:35.393Z,11.77
2023-02-03T18:30:36.918Z,5.03
2023-02-03T18:33:38.644Z,4.20
2023-02-03T18:39:47.134Z,3.60
2023-02-03T18:42:48.984Z,3.92
2023-02-03T18:45:50.770Z,4.10
2023-02-03T18:48:53.177Z,4.32
2023-02-03T18:54:56.369Z,5.65
2023-02-03T18:57:58.834Z,5.00
2023-02-03T19:01:00.609Z,4.90
2023-02-03T19:04:03.268Z,5.78
2023-02-03T19:07:04.747Z,5.03
2023-02-03T19:10:06.481Z,3.87
2023-02-03T19:13:07.918Z,4.75
2023-02-03T19:16:12.934Z,5.07
2023-02-03T19:19:14.836Z,5.05
2023-02-03T19:22:16.240Z,4.38
2023-02-03T19:25:17.650Z,3.70
2023-02-03T19:28:30.008Z,6.20
2023-02-03T19:31:32.393Z,5.00
2023-02-03T19:34:33.962Z,5.07
2023-02-03T19:37:35.482Z,4.97
2023-02-03T19:40:36.901Z,4.50
2023-02-03T19:43:38.332Z,4.00
2023-02-03T19:46:41.984Z,4.07
2023-02-03T19:49:43.586Z,5.32
2023-02-03T19:52:45.061Z,4.63
2023-02-03T19:55:46.639Z,4.50
2023-02-03T19:58:51.939Z,4.78
2023-02-03T20:01:57.975Z,5.22
2023-02-03T20:05:01.041Z,3.67
2023-02-03T20:08:03.338Z,4.18
2023-02-03T20:11:05.127Z,3.83
2023-02-03T20:14:06.648Z,3.67
2023-02-03T20:17:08.219Z,4.13
2023-02-03T20:20:10.030Z,3.70
2023-02-03T20:23:11.472Z,4.75
2023-02-03T20:26:14.218Z,3.83
2023-02-03T20:29:15.752Z,3.40
2023-02-03T20:32:17.211Z,3.60
2023-02-03T20:35:19.749Z,3.70
2023-02-03T20:38:21.268Z,3.25
2023-02-03T20:41:22.727Z,4.53
2023-02-03T20:44:24.232Z,4.20
2023-02-03T20:47:26.182Z,4.10
2023-02-03T20:50:40.447Z,3.30
2023-02-03T20:53:44.257Z,3.60
2023-02-03T20:56:45.727Z,3.60
2023-02-03T20:59:47.561Z,3.47
2023-02-03T21:03:08.457Z,2.90
2023-02-03T21:06:18.559Z,3.50
2023-02-03T21:09:22.720Z,3.65
2023-02-03T21:12:25.402Z,3.50
2023-02-03T21:15:29.520Z,4.40
2023-02-03T21:18:39.057Z,4.28
2023-02-03T21:21:42.480Z,4.20
2023-02-03T21:25:23.433Z,3.50
2023-02-03T21:28:27.779Z,3.60
2023-02-03T21:31:34.684Z,3.28
2023-02-03T21:34:37.515Z,4.07
2023-02-03T21:37:41.257Z,3.28
2023-02-03T21:40:42.711Z,3.22
2023-02-03T21:43:46.938Z,3.80
2023-02-03T21:46:48.403Z,3.80
2023-02-03T21:49:49.856Z,3.37
2023-02-03T21:52:51.307Z,3.50
2023-02-03T21:55:52.993Z,3.30
2023-02-03T21:58:58.740Z,3.55
2023-02-03T22:02:00.691Z,3.45
2023-02-03T22:05:03.701Z,3.80
2023-02-03T22:08:19.703Z,4.45
2023-02-03T22:11:23.674Z,3.60
2023-02-03T22:14:25.063Z,3.90
2023-02-03T22:17:26.495Z,3.90
2023-02-03T22:20:28.123Z,3.28
2023-02-03T22:23:29.725Z,4.10
2023-02-03T22:26:31.190Z,5.20
2023-02-03T22:29:32.653Z,5.13
2023-02-03T22:32:34.136Z,4.90
2023-02-03T22:35:35.738Z,4.00
2023-02-03T22:38:38.536Z,2.60
2023-02-03T22:41:39.951Z,2.95
2023-02-03T22:44:41.372Z,2.83
2023-02-03T22:47:42.766Z,2.70
2023-02-03T22:50:44.150Z,3.53
2023-02-03T22:53:45.674Z,2.60
2023-02-03T22:56:47.105Z,2.87
2023-02-03T22:59:48.502Z,2.53
2023-02-03T23:02:50.564Z,2.40
2023-02-03T23:05:52.026Z,2.85
2023-02-03T23:08:55.312Z,2.90
2023-02-03T23:11:56.787Z,2.70
2023-02-03T23:14:58.335Z,2.60
2023-02-03T23:17:59.826Z,2.27
2023-02-03T23:21:01.245Z,2.60
2023-02-03T23:24:02.822Z,2.65
2023-02-03T23:27:04.279Z,2.67
2023-02-03T23:30:06.409Z,2.30
2023-02-03T23:33:08.087Z,2.72
2023-02-03T23:36:09.590Z,2.65
2023-02-03T23:39:10.968Z,2.90
2023-02-03T23:42:12.456Z,2.10
2023-02-03T23:45:14.033Z,2.53
2023-02-03T23:48:17.654Z,2.20
2023-02-03T23:51:19.066Z,1.90
2023-02-03T23:54:20.475Z,1.87
2023-02-03T23:57:21.877Z,1.85
